aviador You're here:

SBGR Decoded Metar

SAO PAULO in BRAZIL
Report Time2017-08-22 16:00:00
UTC Time2017-08-22 16:39:44
Flight Rules mvfr MVFR
Wind080° at 09 kt
W.Decomp.*RWY 09: 8.9 kt HW 1.6 kt RCW
W.Rank080° ranks 1
Current wind is above 080° avg. (5.4)
Visibility9999 m
Phenomena:N/A
Clouds:Overcast 023 Hf
Expected CloudBase > 2,000 ft AGL from Temp-Dew spread
Ceiling2,300 ft
Temp17°C (ISA +7)
Dew Point12°C (73% RH)
AAT14.4°C
QNH1027 hPa
Density Alt2,995 ft
Elevation2,461 ft
Report Wrong Elevation
Raw Report
METAR SBGR 221600Z 08009KT 9999 OVC023 17/12 Q1027=

Extra information for SBGR:More info

Metar Taf Metar & Taf Last 4 Metars F.Rules Stats Wind Profile Meteogram Temp Stats Airport Information Weather charts Add Link Nearby VenuesMetar ALERT Operation Metar Decoded Social comments